Time;durP1;ratioP1;P1;durP2;ratioP2;P2;SDS_P1;SDS_P2;PMS_P1;PMS_P2;Temp;Humidity;BMP_temperature;BMP_pressure;BME280_temperature;BME280_humidity;BME280_pressure;Samples;Min_cycle;Max_cycle;Signal;HPM_P1;HPM_P2
2022/02/14 00:01:14;;;;;;;9.48;5.55;;;3.10;97.00;;;;;;6213688;23;20028;-87
2022/02/14 00:04:05;;;;;;;10.75;5.53;;;3.10;96.50;;;;;;6215647;23;20078;-85
2022/02/14 00:06:52;;;;;;;8.25;5.18;;;3.10;96.10;;;;;;6216703;23;20021;-86
2022/02/14 00:09:41;;;;;;;11.55;5.45;;;3.10;95.40;;;;;;6212778;23;20028;-86
2022/02/14 00:12:31;;;;;;;10.65;5.60;;;3.20;94.80;;;;;;6212579;23;20082;-87
2022/02/14 00:15:19;;;;;;;12.15;5.55;;;3.10;94.50;;;;;;6214002;23;20031;-85
2022/02/14 00:18:06;;;;;;;10.68;5.85;;;3.10;94.20;;;;;;6213549;23;20036;-86
2022/02/14 00:20:53;;;;;;;13.55;5.45;;;3.20;93.90;;;;;;6215046;23;20072;-86
2022/02/14 00:23:40;;;;;;;7.60;4.80;;;3.20;93.30;;;;;;6214941;23;20044;-87
2022/02/14 00:26:28;;;;;;;7.78;4.75;;;3.20;93.20;;;;;;6215801;23;20024;-87
2022/02/14 00:29:16;;;;;;;7.47;4.57;;;3.20;92.60;;;;;;6214706;23;20068;-87
2022/02/14 00:32:03;;;;;;;8.20;4.88;;;3.30;91.90;;;;;;6215169;23;20090;-86
2022/02/14 00:34:55;;;;;;;7.20;4.75;;;3.40;91.20;;;;;;6214361;23;20127;-86
2022/02/14 00:37:49;;;;;;;7.50;4.97;;;3.50;90.70;;;;;;6217488;23;20087;-86
2022/02/14 00:40:39;;;;;;;8.40;4.68;;;3.60;89.70;;;;;;6225935;23;20111;-87
2022/02/14 00:43:26;;;;;;;7.47;4.43;;;3.60;88.50;;;;;;6215880;23;20129;-86
2022/02/14 00:46:16;;;;;;;11.20;4.47;;;3.60;88.10;;;;;;6213699;23;20029;-87
2022/02/14 00:49:06;;;;;;;8.43;4.50;;;3.60;87.40;;;;;;6214451;23;20098;-87
2022/02/14 00:51:53;;;;;;;6.38;4.15;;;3.60;86.90;;;;;;6215253;23;20040;-86
2022/02/14 00:54:43;;;;;;;7.13;4.10;;;3.60;86.70;;;;;;6215300;23;20029;-86
2022/02/14 00:57:30;;;;;;;7.20;4.43;;;3.70;86.10;;;;;;6213803;23;20028;-85
2022/02/14 01:00:19;;;;;;;6.97;3.53;;;3.60;84.50;;;;;;6212731;23;20083;-86
2022/02/14 01:03:06;;;;;;;5.00;3.70;;;3.70;83.20;;;;;;6213364;23;20033;-86
2022/02/14 01:05:53;;;;;;;7.00;4.05;;;3.60;83.30;;;;;;6214706;23;20072;-86
2022/02/14 01:08:41;;;;;;;6.40;4.15;;;3.60;82.70;;;;;;6215685;23;20020;-85
2022/02/14 01:11:29;;;;;;;6.50;3.58;;;3.60;82.50;;;;;;6213387;23;20034;-87
2022/02/14 01:14:16;;;;;;;5.38;3.38;;;3.50;82.40;;;;;;6212527;23;20075;-87
2022/02/14 01:17:03;;;;;;;10.95;4.30;;;3.60;82.10;;;;;;6213727;23;20036;-85
2022/02/14 01:19:51;;;;;;;8.70;4.03;;;3.50;82.10;;;;;;6220153;23;20028;-85
2022/02/14 01:22:39;;;;;;;6.88;3.65;;;3.40;82.20;;;;;;6215162;23;20439;-87
2022/02/14 01:25:26;;;;;;;12.82;4.47;;;3.40;83.20;;;;;;6212859;23;20095;-85
2022/02/14 01:28:13;;;;;;;5.68;3.40;;;3.30;82.20;;;;;;6213157;23;20035;-86
2022/02/14 01:31:01;;;;;;;7.13;3.47;;;3.40;82.60;;;;;;6213191;23;20035;-87
2022/02/14 01:33:48;;;;;;;6.22;3.45;;;3.50;81.40;;;;;;6215321;23;20024;-87
2022/02/14 01:36:36;;;;;;;6.15;3.47;;;3.70;80.80;;;;;;6212870;23;20322;-87
2022/02/14 01:39:25;;;;;;;5.93;3.20;;;3.70;79.00;;;;;;6218036;23;20028;-87
2022/02/14 01:42:13;;;;;;;6.85;3.03;;;3.90;78.40;;;;;;6222081;23;20118;-87
2022/02/14 01:45:00;;;;;;;7.63;3.58;;;3.90;76.70;;;;;;6223195;23;20027;-87
2022/02/14 01:47:47;;;;;;;8.18;3.85;;;4.00;75.80;;;;;;6221849;23;20047;-86
2022/02/14 01:50:38;;;;;;;8.48;3.92;;;4.00;75.40;;;;;;6242892;23;20024;-87
2022/02/14 01:53:25;;;;;;;5.07;3.08;;;4.00;76.00;;;;;;6220195;23;20113;-86
2022/02/14 01:56:13;;;;;;;7.10;3.38;;;3.90;75.40;;;;;;6220710;23;20032;-87
2022/02/14 01:59:00;;;;;;;5.45;3.30;;;3.90;75.30;;;;;;6220852;23;20036;-86
2022/02/14 02:01:47;;;;;;;5.97;3.35;;;3.80;74.90;;;;;;6243027;23;20111;-87
2022/02/14 02:04:59;;;;;;;5.18;3.40;;;3.80;75.20;;;;;;6246259;22;20306;-88
2022/02/14 02:07:51;;;;;;;5.25;2.80;;;3.90;73.80;;;;;;6223081;23;20028;-87
2022/02/14 02:10:39;;;;;;;9.25;3.65;;;4.00;73.00;;;;;;6243072;23;20047;-87
2022/02/14 02:13:26;;;;;;;5.28;2.97;;;4.00;72.00;;;;;;6224349;23;20028;-87
2022/02/14 02:16:14;;;;;;;7.18;3.15;;;4.00;72.10;;;;;;6243357;23;20028;-87
2022/02/14 02:19:04;;;;;;;9.45;2.95;;;4.10;72.10;;;;;;6222940;23;20047;-87
2022/02/14 02:21:52;;;;;;;6.90;3.10;;;4.10;71.30;;;;;;6224742;23;20052;-86
2022/02/14 02:24:54;;;;;;;6.47;3.65;;;4.00;71.00;;;;;;6226104;23;20020;-87
2022/02/14 02:27:45;;;;;;;4.17;3.30;;;3.90;71.70;;;;;;6248689;23;20028;-86
2022/02/14 02:30:32;;;;;;;5.38;3.22;;;3.90;71.70;;;;;;6260627;23;20235;-86
2022/02/14 02:33:19;;;;;;;3.97;2.88;;;3.80;71.30;;;;;;6233051;23;20123;-87
2022/02/14 02:36:06;;;;;;;6.32;3.30;;;3.80;71.20;;;;;;6232872;23;20024;-86
2022/02/14 02:38:54;;;;;;;4.57;2.90;;;3.70;70.80;;;;;;6229199;23;20102;-87
2022/02/14 02:41:44;;;;;;;6.20;2.97;;;3.80;70.20;;;;;;6221893;23;20370;-88
2022/02/14 02:44:33;;;;;;;3.55;2.47;;;3.80;69.30;;;;;;6222525;23;20047;-86
2022/02/14 02:47:27;;;;;;;7.43;3.17;;;4.00;68.60;;;;;;6237061;23;20106;-87
2022/02/14 02:50:17;;;;;;;5.93;2.90;;;4.10;67.80;;;;;;6232342;23;20370;-87
2022/02/14 02:53:04;;;;;;;4.05;2.53;;;4.10;67.40;;;;;;6250894;23;20032;-87
2022/02/14 02:55:51;;;;;;;3.63;2.20;;;4.00;67.30;;;;;;6233902;23;20028;-86
2022/02/14 02:58:39;;;;;;;4.50;2.40;;;4.00;67.60;;;;;;6256712;23;20024;-86
2022/02/14 03:01:26;;;;;;;3.45;2.45;;;3.90;67.50;;;;;;6230990;23;20024;-87
2022/02/14 03:04:17;;;;;;;8.18;2.80;;;3.80;67.30;;;;;;6229647;23;20086;-87
2022/02/14 03:07:06;;;;;;;4.70;2.90;;;3.70;67.50;;;;;;6242086;23;20103;-87
2022/02/14 03:09:56;;;;;;;3.95;2.75;;;3.70;67.60;;;;;;6222280;23;20048;-87
2022/02/14 03:12:43;;;;;;;5.35;2.58;;;3.60;68.10;;;;;;6220282;23;20024;-88
2022/02/14 03:15:31;;;;;;;4.50;2.55;;;3.60;68.10;;;;;;6221968;23;20055;-87
2022/02/14 03:18:19;;;;;;;4.30;2.95;;;3.60;67.90;;;;;;6244885;23;20048;-87
2022/02/14 03:21:09;;;;;;;5.38;2.58;;;3.50;68.50;;;;;;6244124;23;20039;-86
2022/02/14 03:23:57;;;;;;;3.97;2.60;;;3.50;68.60;;;;;;6222954;23;20024;-87
2022/02/14 03:26:44;;;;;;;4.38;2.95;;;3.50;68.60;;;;;;6246626;23;20020;-87
2022/02/14 03:29:31;;;;;;;7.78;2.83;;;3.50;68.20;;;;;;6226604;23;20060;-87
2022/02/14 03:32:22;;;;;;;5.97;3.00;;;3.50;68.00;;;;;;6224562;23;20028;-86
2022/02/14 03:35:10;;;;;;;5.68;2.72;;;3.60;67.50;;;;;;6223234;23;20024;-87
2022/02/14 03:37:59;;;;;;;5.28;2.90;;;3.60;67.10;;;;;;6244485;23;20023;-87
2022/02/14 03:40:47;;;;;;;3.38;2.17;;;3.70;67.10;;;;;;6223958;23;20059;-87
2022/02/14 03:43:34;;;;;;;6.30;2.75;;;3.70;67.10;;;;;;6247872;23;20042;-86
2022/02/14 03:46:22;;;;;;;2.83;2.10;;;3.60;66.80;;;;;;6236534;23;20107;-87
2022/02/14 03:49:09;;;;;;;4.78;2.63;;;3.60;67.00;;;;;;6236011;23;20466;-87
2022/02/14 03:51:56;;;;;;;6.72;2.78;;;3.60;67.10;;;;;;6245547;23;20031;-87
2022/02/14 03:54:48;;;;;;;5.05;2.50;;;3.50;66.30;;;;;;6223602;23;20028;-86
2022/02/14 03:57:35;;;;;;;5.27;2.40;;;3.50;66.80;;;;;;6222924;23;20028;-87
2022/02/14 04:00:23;;;;;;;3.20;2.50;;;3.50;66.50;;;;;;6224168;23;20235;-87
2022/02/14 04:03:11;;;;;;;5.63;2.65;;;3.40;66.90;;;;;;6224617;23;20020;-87
2022/02/14 04:06:02;;;;;;;2.28;2.08;;;3.50;66.70;;;;;;6223042;23;20020;-86
2022/02/14 04:08:50;;;;;;;4.45;2.88;;;3.60;66.00;;;;;;6222307;23;20043;-87
2022/02/14 04:11:40;;;;;;;4.53;2.60;;;3.70;65.70;;;;;;6245389;23;20032;-87
2022/02/14 04:14:27;;;;;;;4.90;2.88;;;3.70;65.40;;;;;;6245506;23;20403;-88
2022/02/14 04:17:20;;;;;;;4.55;2.72;;;3.70;65.50;;;;;;6225309;23;20035;-85
2022/02/14 04:20:08;;;;;;;3.05;2.45;;;3.70;64.80;;;;;;6223746;23;20024;-85
2022/02/14 04:22:55;;;;;;;3.75;2.03;;;3.70;65.30;;;;;;6245704;23;20311;-86
2022/02/14 04:25:44;;;;;;;3.22;2.50;;;3.60;65.30;;;;;;6224082;23;20418;-85
2022/02/14 04:28:34;;;;;;;5.90;2.60;;;3.70;65.00;;;;;;6245911;23;20722;-86
2022/02/14 04:31:23;;;;;;;5.32;2.70;;;3.60;65.20;;;;;;6245145;23;20025;-85
2022/02/14 04:34:10;;;;;;;4.25;2.70;;;3.60;65.30;;;;;;6222552;23;20028;-88
2022/02/14 04:37:02;;;;;;;4.97;2.45;;;3.50;65.40;;;;;;6243849;23;20032;-88
2022/02/14 04:39:54;;;;;;;4.90;2.92;;;3.60;65.30;;;;;;6246740;23;20070;-86
2022/02/14 04:42:48;;;;;;;5.80;2.60;;;3.50;65.50;;;;;;6226264;23;20082;-86
2022/02/14 04:45:36;;;;;;;2.65;2.13;;;3.50;65.90;;;;;;6245643;23;20068;-85
2022/02/14 04:48:23;;;;;;;6.10;2.70;;;3.50;65.90;;;;;;6244074;23;20031;-84
2022/02/14 04:51:11;;;;;;;3.67;2.22;;;3.40;65.60;;;;;;6248045;23;20031;-86
2022/02/14 04:53:58;;;;;;;3.60;2.63;;;3.40;66.70;;;;;;6226736;23;20031;-85
2022/02/14 04:56:47;;;;;;;5.00;2.92;;;3.40;66.10;;;;;;6248895;23;20024;-87
2022/02/14 04:59:34;;;;;;;5.35;3.58;;;3.40;65.40;;;;;;6243975;23;20040;-88
2022/02/14 05:02:21;;;;;;;6.13;3.53;;;3.40;66.20;;;;;;6222777;23;20020;-85
2022/02/14 05:05:09;;;;;;;6.88;3.50;;;3.30;66.40;;;;;;6244704;23;20080;-87
2022/02/14 05:07:57;;;;;;;5.45;2.72;;;3.30;66.50;;;;;;6222637;23;20362;-88
2022/02/14 05:10:44;;;;;;;4.22;3.15;;;3.30;66.60;;;;;;6221788;23;20048;-85
2022/02/14 05:13:33;;;;;;;6.65;2.83;;;3.30;66.40;;;;;;6223160;23;20032;-86
2022/02/14 05:16:27;;;;;;;6.78;3.40;;;3.40;66.60;;;;;;6245771;23;20422;-87
2022/02/14 05:19:16;;;;;;;8.10;3.80;;;3.40;66.40;;;;;;6246677;23;20035;-86
2022/02/14 05:22:03;;;;;;;5.70;3.70;;;3.40;67.10;;;;;;6224856;23;20024;-86
2022/02/14 05:24:52;;;;;;;4.05;3.13;;;3.40;67.70;;;;;;6222030;23;20074;-86
2022/02/14 05:27:39;;;;;;;6.97;3.28;;;3.30;67.50;;;;;;6221620;23;20122;-86
2022/02/14 05:30:29;;;;;;;6.82;3.38;;;3.40;68.40;;;;;;6225865;23;20038;-86
2022/02/14 05:33:17;;;;;;;12.80;3.30;;;3.40;68.50;;;;;;6222661;23;20024;-88
2022/02/14 05:36:05;;;;;;;7.00;3.05;;;3.50;68.80;;;;;;6222428;23;20047;-88
2022/02/14 05:38:53;;;;;;;7.18;3.30;;;3.60;68.50;;;;;;6220924;23;20047;-86
2022/02/14 05:46:39;;;;;;;12.43;4.25;;;3.60;68.40;;;;;;6243198;22;20411;-86
2022/02/14 06:07:21;;;;;;;9.75;3.40;;;3.60;69.80;;;;;;5928072;24;20017;-87
2022/02/14 06:10:08;;;;;;;6.47;3.40;;;3.80;69.40;;;;;;5933313;24;20028;-86
2022/02/14 06:12:56;;;;;;;6.68;3.45;;;3.80;69.80;;;;;;5933982;23;20021;-89
2022/02/14 06:15:46;;;;;;;4.97;3.15;;;3.90;69.60;;;;;;6037619;23;20128;-87
2022/02/14 06:18:34;;;;;;;7.95;2.88;;;3.80;69.60;;;;;;6036469;23;20519;-86
2022/02/14 06:21:21;;;;;;;6.97;3.17;;;3.80;69.40;;;;;;6038530;23;20027;-88
2022/02/14 06:24:10;;;;;;;4.53;3.03;;;3.80;69.40;;;;;;6036376;23;20136;-86
2022/02/14 06:26:59;;;;;;;4.70;3.08;;;3.80;69.60;;;;;;6108129;23;20026;-85
2022/02/14 06:29:48;;;;;;;7.57;3.03;;;3.80;69.70;;;;;;6130306;23;20096;-86
2022/02/14 06:32:36;;;;;;;7.68;3.10;;;3.80;69.70;;;;;;6132870;23;20034;-87
2022/02/14 06:35:23;;;;;;;5.82;3.35;;;3.80;69.80;;;;;;6210490;23;20115;-86
2022/02/14 06:38:40;;;;;;;;;;;;;;;;;;;;;
2022/02/14 06:41:50;;;;;;;6.28;3.13;;;3.70;70.10;;;;;;6243090;23;20028;-87
2022/02/14 06:49:46;;;;;;;8.00;3.58;;;3.80;70.50;;;;;;6088616;23;20043;-90
2022/02/14 06:52:34;;;;;;;9.43;4.05;;;3.80;70.60;;;;;;6048334;23;20055;-86
2022/02/14 06:56:00;;;;;;;;;;;;;;;;;;;;;
2022/02/14 07:28:58;;;;;;;8.10;4.00;;;4.20;71.00;;;;;;6186552;22;1905285;-84
2022/02/14 07:31:47;;;;;;;6.95;3.67;;;5.10;69.10;;;;;;6282701;22;20410;-85
2022/02/14 07:34:35;;;;;;;8.10;3.42;;;5.30;68.70;;;;;;6258964;22;20024;-82
2022/02/14 07:37:23;;;;;;;8.13;3.08;;;5.60;67.90;;;;;;6260898;22;20077;-83
2022/02/14 07:40:15;;;;;;;7.30;3.22;;;5.70;67.40;;;;;;6261001;22;20027;-84
2022/02/14 07:43:07;;;;;;;8.18;2.90;;;5.80;66.60;;;;;;6260124;22;20023;-84
2022/02/14 07:45:55;;;;;;;7.22;3.60;;;5.80;66.40;;;;;;6259424;22;20430;-84
2022/02/14 07:48:46;;;;;;;10.43;3.13;;;5.80;66.90;;;;;;6259879;22;20027;-84
2022/02/14 07:51:36;;;;;;;11.00;3.70;;;5.80;66.50;;;;;;6258988;22;20031;-84
2022/02/14 07:54:23;;;;;;;7.38;3.50;;;6.00;66.80;;;;;;6260816;22;20268;-87
2022/02/14 07:57:12;;;;;;;5.18;3.28;;;6.10;65.70;;;;;;6259107;22;20065;-87
2022/02/14 08:00:05;;;;;;;10.23;3.58;;;6.10;66.10;;;;;;6260312;22;20106;-86
2022/02/14 08:02:52;;;;;;;5.43;3.58;;;6.10;65.80;;;;;;6259143;22;20023;-83
2022/02/14 08:05:42;;;;;;;6.15;3.00;;;6.20;65.70;;;;;;6259174;22;20020;-83
2022/02/14 08:08:29;;;;;;;7.35;3.67;;;6.30;65.80;;;;;;6239901;22;20053;-84
2022/02/14 08:11:20;;;;;;;9.32;3.20;;;6.30;65.50;;;;;;6259526;22;20023;-83
2022/02/14 08:14:07;;;;;;;8.35;3.72;;;6.30;65.60;;;;;;6260963;22;20642;-84
2022/02/14 08:16:57;;;;;;;8.38;3.30;;;6.40;65.50;;;;;;6259184;22;20047;-85
2022/02/14 08:19:47;;;;;;;7.13;3.22;;;6.60;65.40;;;;;;6257280;22;20075;-83
2022/02/14 08:22:39;;;;;;;6.50;3.20;;;6.70;64.10;;;;;;6260369;22;20034;-85
2022/02/14 08:25:30;;;;;;;8.93;2.83;;;6.80;64.00;;;;;;6282428;22;20045;-87
2022/02/14 08:28:21;;;;;;;6.68;3.42;;;6.80;64.40;;;;;;6266158;22;20046;-86
2022/02/14 08:31:10;;;;;;;7.95;3.90;;;6.90;63.90;;;;;;6273968;22;20107;-88
2022/02/14 08:34:00;;;;;;;8.55;3.13;;;7.10;63.40;;;;;;6275806;22;20075;-84
2022/02/14 08:36:49;;;;;;;5.90;3.13;;;7.20;63.50;;;;;;6277509;22;20023;-85
2022/02/14 08:39:36;;;;;;;5.85;3.00;;;7.50;63.10;;;;;;6253146;22;20019;-84
2022/02/14 08:42:33;;;;;;;8.48;2.92;;;8.00;61.80;;;;;;6287137;22;20122;-85
2022/02/14 08:45:21;;;;;;;7.97;2.83;;;8.70;59.90;;;;;;6287831;22;20019;-85
2022/02/14 08:48:09;;;;;;;13.20;3.60;;;8.80;58.50;;;;;;6281479;22;20101;-85
2022/02/14 08:50:56;;;;;;;9.70;3.25;;;8.60;59.40;;;;;;6276957;22;20028;-85
2022/02/14 08:53:46;;;;;;;7.43;2.95;;;8.50;60.30;;;;;;6276777;22;20034;-84
2022/02/14 08:56:36;;;;;;;6.88;2.67;;;8.50;60.00;;;;;;6280901;22;20027;-84
2022/02/14 08:59:26;;;;;;;11.15;3.08;;;8.50;59.60;;;;;;6280027;22;20043;-83
2022/02/14 09:02:14;;;;;;;6.22;2.90;;;8.50;59.60;;;;;;6274920;22;20031;-84
2022/02/14 09:05:05;;;;;;;5.97;2.90;;;8.50;59.80;;;;;;6272577;22;20376;-83
2022/02/14 09:07:52;;;;;;;7.50;3.22;;;8.80;59.70;;;;;;6274932;22;20088;-85
2022/02/14 09:10:42;;;;;;;8.18;2.85;;;9.30;58.50;;;;;;6274659;22;20032;-83
2022/02/14 09:13:35;;;;;;;6.97;2.67;;;9.70;57.50;;;;;;6274158;22;20119;-86
2022/02/14 09:16:32;;;;;;;7.82;2.80;;;10.20;56.40;;;;;;6275077;22;20027;-84
2022/02/14 09:19:23;;;;;;;6.78;2.80;;;10.10;56.40;;;;;;6273935;22;20079;-86
2022/02/14 09:22:19;;;;;;;5.53;2.92;;;9.40;57.40;;;;;;6275927;22;20335;-85
2022/02/14 09:25:23;;;;;;;7.20;2.90;;;9.40;58.30;;;;;;6275552;22;20471;-86
2022/02/14 09:28:17;;;;;;;5.63;2.88;;;9.80;57.50;;;;;;6285296;22;20098;-84
2022/02/14 09:31:05;;;;;;;8.00;3.05;;;9.90;57.90;;;;;;6305067;22;20035;-83
2022/02/14 09:33:52;;;;;;;11.85;3.45;;;10.40;56.70;;;;;;6285134;22;20042;-83
2022/02/14 09:36:42;;;;;;;7.85;3.30;;;10.30;56.70;;;;;;6281093;22;20410;-85
2022/02/14 09:39:32;;;;;;;7.88;3.50;;;10.50;57.10;;;;;;6279541;22;20023;-83
2022/02/14 09:42:20;;;;;;;6.90;2.97;;;11.20;55.60;;;;;;6282245;22;20342;-83
2022/02/14 09:45:11;;;;;;;9.65;3.20;;;11.60;54.20;;;;;;6283442;22;20116;-82
2022/02/14 09:48:01;;;;;;;6.68;3.05;;;12.10;54.10;;;;;;6281290;22;20042;-82
2022/02/14 09:50:51;;;;;;;11.32;3.17;;;12.10;53.50;;;;;;6282562;22;20125;-82
2022/02/14 09:53:44;;;;;;;6.00;2.47;;;12.00;53.50;;;;;;6306428;22;20418;-82
2022/02/14 09:56:35;;;;;;;7.13;3.13;;;11.80;53.80;;;;;;6306787;22;20472;-83
2022/02/14 09:59:22;;;;;;;9.57;3.15;;;12.50;53.50;;;;;;6312549;22;20098;-84
2022/02/14 10:02:25;;;;;;;7.88;2.38;;;12.70;52.60;;;;;;6306949;22;20031;-85
2022/02/14 10:05:18;;;;;;;6.43;2.78;;;12.50;53.10;;;;;;6290405;22;20019;-85
2022/02/14 10:08:05;;;;;;;7.75;2.95;;;11.90;54.60;;;;;;6293423;22;20027;-85
2022/02/14 10:11:08;;;;;;;6.70;2.88;;;12.10;54.70;;;;;;6315485;22;20050;-83
2022/02/14 10:14:11;;;;;;;11.35;3.25;;;11.80;55.20;;;;;;6287886;22;20088;-84
2022/02/14 10:17:18;;;;;;;7.95;2.63;;;11.70;56.00;;;;;;6292890;22;20019;-84
2022/02/14 10:20:06;;;;;;;5.35;3.00;;;11.50;57.10;;;;;;6286313;22;20038;-81
2022/02/14 10:23:02;;;;;;;6.25;2.58;;;11.60;57.30;;;;;;6306781;22;20027;-83
2022/02/14 10:25:52;;;;;;;7.28;2.33;;;12.40;56.60;;;;;;6295401;22;20024;-85
2022/02/14 10:28:39;;;;;;;9.68;2.58;;;12.40;56.50;;;;;;6317395;22;20050;-86
2022/02/14 10:31:39;;;;;;;7.18;2.53;;;12.40;57.20;;;;;;6294208;22;20057;-86
2022/02/14 10:34:36;;;;;;;5.25;2.13;;;12.60;57.50;;;;;;6323878;22;20015;-83
2022/02/14 10:37:41;;;;;;;9.02;2.20;;;12.90;56.10;;;;;;6312768;22;20023;-84
2022/02/14 10:40:31;;;;;;;8.25;2.45;;;12.80;56.40;;;;;;6311335;22;20019;-82
2022/02/14 10:43:26;;;;;;;8.52;2.50;;;12.80;56.10;;;;;;6309363;22;20023;-85
2022/02/14 10:46:22;;;;;;;5.93;2.15;;;13.20;55.60;;;;;;6306535;22;20409;-85
2022/02/14 10:49:14;;;;;;;6.72;2.40;;;13.70;53.70;;;;;;6305513;22;20326;-86
2022/02/14 10:52:11;;;;;;;7.88;2.35;;;14.20;53.40;;;;;;6307356;22;20275;-87
2022/02/14 10:55:11;;;;;;;5.53;2.42;;;15.30;52.50;;;;;;6303634;22;20094;-83
2022/02/14 10:58:01;;;;;;;5.65;1.80;;;16.00;50.40;;;;;;6283228;22;20019;-84
2022/02/14 11:00:48;;;;;;;11.15;2.45;;;14.70;52.50;;;;;;6305463;22;20095;-83
2022/02/14 11:03:38;;;;;;;9.63;2.30;;;14.90;53.10;;;;;;6304831;22;20027;-83
2022/02/14 11:06:25;;;;;;;7.85;2.20;;;15.00;52.10;;;;;;6282828;22;20079;-83
2022/02/14 11:09:14;;;;;;;7.50;2.10;;;15.20;52.70;;;;;;6282718;22;20311;-87
2022/02/14 11:12:02;;;;;;;4.95;2.05;;;15.70;52.20;;;;;;6302442;22;20034;-83
2022/02/14 11:14:54;;;;;;;5.90;2.15;;;14.90;53.80;;;;;;6302673;22;20039;-82
2022/02/14 11:17:46;;;;;;;5.32;1.80;;;15.10;53.50;;;;;;6284375;22;20023;-84
2022/02/14 11:20:35;;;;;;;7.72;2.35;;;14.40;55.60;;;;;;6309540;22;20065;-83
2022/02/14 11:23:27;;;;;;;3.72;2.13;;;13.40;57.10;;;;;;6308860;22;20284;-83
2022/02/14 11:26:25;;;;;;;8.55;2.45;;;12.40;59.50;;;;;;6304747;22;20023;-84
2022/02/14 11:29:37;;;;;;;7.25;2.42;;;11.90;61.10;;;;;;6302801;22;20033;-83
2022/02/14 11:32:24;;;;;;;7.70;2.30;;;11.70;63.10;;;;;;6302910;22;20027;-84
2022/02/14 11:35:20;;;;;;;4.68;1.80;;;11.60;64.10;;;;;;6305860;22;20092;-84
2022/02/14 11:38:08;;;;;;;6.95;3.00;;;11.60;63.90;;;;;;6303351;22;20023;-85
2022/02/14 11:40:57;;;;;;;5.25;2.35;;;11.70;65.80;;;;;;6282111;22;20443;-84
2022/02/14 11:43:44;;;;;;;6.53;2.47;;;11.70;64.20;;;;;;6304711;22;20106;-85
2022/02/14 11:46:36;;;;;;;7.20;2.33;;;11.80;64.30;;;;;;6303480;22;20034;-86
2022/02/14 11:49:42;;;;;;;4.03;2.03;;;11.70;65.20;;;;;;6280279;22;20321;-84
2022/02/14 11:52:38;;;;;;;4.70;1.83;;;11.90;65.60;;;;;;6304930;22;20027;-86
2022/02/14 11:55:29;;;;;;;5.63;2.15;;;12.50;64.80;;;;;;6304322;22;20027;-82
2022/02/14 11:58:55;;;;;;;6.65;1.98;;;13.50;62.90;;;;;;6281258;22;20045;-84
2022/02/14 12:01:48;;;;;;;6.63;2.05;;;15.00;58.50;;;;;;6282971;22;20106;-86
2022/02/14 12:04:46;;;;;;;6.63;2.08;;;15.10;57.10;;;;;;6281409;22;20023;-80
2022/02/14 12:07:33;;;;;;;5.55;1.92;;;14.80;58.30;;;;;;6283359;22;20106;-81
2022/02/14 12:10:25;;;;;;;5.57;2.20;;;14.80;58.10;;;;;;6284395;22;20057;-83
2022/02/14 12:13:15;;;;;;;7.68;2.33;;;14.60;58.20;;;;;;6281635;22;20027;-82
2022/02/14 12:22:07;;;;;;;3.53;1.85;;;13.50;62.60;;;;;;6303599;22;20081;-82
2022/02/14 12:24:56;;;;;;;4.13;1.98;;;13.10;63.80;;;;;;6283576;22;20026;-81
2022/02/14 12:27:46;;;;;;;5.05;1.58;;;12.30;67.60;;;;;;6306170;22;20306;-80
2022/02/14 12:30:33;;;;;;;4.65;1.70;;;11.80;69.60;;;;;;6305042;22;20042;-80
2022/02/14 12:33:21;;;;;;;5.35;2.20;;;11.40;71.00;;;;;;6280327;22;20037;-82
2022/02/14 12:36:11;;;;;;;4.03;1.77;;;11.60;71.50;;;;;;6281335;22;20038;-82
2022/02/14 12:38:58;;;;;;;6.03;1.70;;;12.60;68.10;;;;;;6304059;22;20019;-84
2022/02/14 12:41:46;;;;;;;5.40;1.70;;;12.50;66.80;;;;;;6303495;22;20139;-82
2022/02/14 12:44:37;;;;;;;3.38;1.83;;;12.60;67.20;;;;;;6282572;22;20023;-82
2022/02/14 12:47:27;;;;;;;5.15;1.67;;;13.00;65.90;;;;;;6282313;22;20456;-81
2022/02/14 12:50:20;;;;;;;4.78;1.70;;;12.60;66.50;;;;;;6302679;22;20136;-82
2022/02/14 12:53:09;;;;;;;7.93;2.05;;;12.70;66.60;;;;;;6303100;22;20023;-84
2022/02/14 12:56:23;;;;;;;4.75;1.83;;;12.80;67.00;;;;;;6303399;22;20108;-82
2022/02/14 12:59:16;;;;;;;4.85;2.13;;;12.30;68.60;;;;;;6304481;22;20039;-82
2022/02/14 13:02:06;;;;;;;5.72;2.03;;;12.10;70.40;;;;;;6303740;22;20367;-82
2022/02/14 13:04:53;;;;;;;6.13;2.00;;;12.50;69.40;;;;;;6307292;22;20034;-84
2022/02/14 13:07:40;;;;;;;4.07;2.08;;;12.70;67.50;;;;;;6307315;22;20134;-83
2022/02/14 13:10:30;;;;;;;5.13;2.00;;;12.50;68.20;;;;;;6304075;22;20031;-84
2022/02/14 13:13:33;;;;;;;5.55;2.08;;;12.30;70.00;;;;;;6281672;22;20039;-83
2022/02/14 13:16:51;;;;;;;5.18;2.08;;;12.10;70.70;;;;;;6282154;22;20418;-83
2022/02/14 13:23:56;;;;;;;3.45;2.00;;;11.40;72.90;;;;;;6305876;22;20087;-83
2022/02/14 13:27:21;;;;;;;5.75;1.88;;;11.00;75.40;;;;;;6282715;22;20089;-84
2022/02/14 13:34:53;;;;;;;3.97;1.95;;;10.70;78.10;;;;;;6308726;22;20035;-83
2022/02/14 13:50:27;;;;;;;7.20;1.98;;;10.70;81.90;;;;;;6308711;22;20030;-84
2022/02/14 13:57:44;;;;;;;2.58;1.80;;;10.50;84.10;;;;;;6303559;22;20066;-87
2022/02/14 14:00:40;;;;;;;6.43;2.10;;;10.40;86.40;;;;;;6280702;22;20432;-84
2022/02/14 14:03:31;;;;;;;4.45;1.80;;;10.30;87.90;;;;;;6301514;22;20059;-84
2022/02/14 14:06:28;;;;;;;2.47;1.70;;;10.20;89.40;;;;;;6281531;22;20119;-82
2022/02/14 14:09:23;;;;;;;3.40;1.92;;;10.20;88.50;;;;;;6306077;22;20266;-83
2022/02/14 14:12:14;;;;;;;7.75;1.90;;;10.10;89.80;;;;;;6280218;22;20076;-83
2022/02/14 14:15:03;;;;;;;6.95;2.22;;;10.10;90.20;;;;;;6304114;22;20422;-84
2022/02/14 14:17:51;;;;;;;3.53;1.80;;;10.00;90.70;;;;;;6276764;22;20027;-85
2022/02/14 14:20:38;;;;;;;8.07;1.98;;;10.00;91.30;;;;;;6280366;22;20038;-86
2022/02/14 14:23:25;;;;;;;2.63;1.75;;;9.90;92.10;;;;;;6305926;22;20107;-84
2022/02/14 14:26:16;;;;;;;5.05;2.25;;;9.90;93.20;;;;;;6303324;22;20027;-84
2022/02/14 14:29:03;;;;;;;4.22;2.05;;;9.80;94.00;;;;;;6278420;22;20027;-83
2022/02/14 14:31:56;;;;;;;6.72;2.75;;;9.80;94.50;;;;;;6283307;22;20023;-84
2022/02/14 14:34:46;;;;;;;6.57;1.88;;;9.80;94.90;;;;;;6303853;22;20130;-84
2022/02/14 14:37:33;;;;;;;5.10;2.65;;;9.80;95.80;;;;;;6307608;22;20027;-86
2022/02/14 14:40:20;;;;;;;5.82;1.58;;;9.80;96.20;;;;;;6310881;22;20037;-83
2022/02/14 14:43:08;;;;;;;1.65;1.33;;;9.90;96.50;;;;;;6310295;22;20102;-84
2022/02/14 14:45:59;;;;;;;2.38;1.85;;;10.00;96.40;;;;;;6280745;22;20027;-83
2022/02/14 14:48:47;;;;;;;4.00;1.70;;;10.00;96.60;;;;;;6304213;22;20033;-85
2022/02/14 14:51:35;;;;;;;3.72;1.40;;;9.90;96.90;;;;;;6299032;22;20031;-87
2022/02/14 14:54:29;;;;;;;2.53;1.60;;;9.90;97.10;;;;;;6306554;22;20074;-87
2022/02/14 14:57:19;;;;;;;6.43;1.90;;;9.90;98.60;;;;;;6309702;22;20031;-82
2022/02/14 15:00:07;;;;;;;6.10;2.17;;;9.80;99.90;;;;;;6294501;22;20023;-82
2022/02/14 15:02:56;;;;;;;3.97;2.22;;;9.70;99.90;;;;;;6300621;22;20113;-81
2022/02/14 15:05:43;;;;;;;8.95;2.42;;;9.70;99.90;;;;;;6287646;22;20031;-86
2022/02/14 15:08:30;;;;;;;3.30;2.30;;;9.60;99.90;;;;;;6311206;22;20039;-83
2022/02/14 15:11:18;;;;;;;6.65;2.28;;;9.60;99.90;;;;;;6284238;22;20027;-81
2022/02/14 15:14:06;;;;;;;4.28;1.77;;;9.60;99.90;;;;;;6306207;22;20108;-84
2022/02/14 15:16:55;;;;;;;2.25;1.60;;;9.60;99.90;;;;;;6291438;22;20418;-85
2022/02/14 15:19:47;;;;;;;4.82;2.10;;;9.50;99.90;;;;;;6316037;22;20091;-84
2022/02/14 15:22:34;;;;;;;4.32;2.25;;;9.50;99.90;;;;;;6298118;22;20086;-84
2022/02/14 15:25:22;;;;;;;3.33;2.03;;;9.50;99.90;;;;;;6320204;22;20023;-85
2022/02/14 15:28:09;;;;;;;3.40;1.70;;;9.50;99.90;;;;;;6306698;22;20061;-83
2022/02/14 15:30:57;;;;;;;3.22;2.10;;;9.40;99.90;;;;;;6286614;22;20054;-83
2022/02/14 15:33:50;;;;;;;4.82;2.25;;;9.30;99.90;;;;;;6284767;22;20030;-82
2022/02/14 15:37:05;;;;;;;3.47;1.98;;;9.20;99.90;;;;;;6282180;22;20035;-83
2022/02/14 15:40:08;;;;;;;3.67;2.03;;;9.10;99.90;;;;;;6287065;22;20379;-85
2022/02/14 15:43:11;;;;;;;2.25;1.70;;;9.00;99.90;;;;;;6287286;22;20038;-88
2022/02/14 15:45:59;;;;;;;2.40;1.80;;;8.80;99.90;;;;;;6282657;22;20027;-84
2022/02/14 15:49:10;;;;;;;3.50;1.67;;;8.60;99.90;;;;;;6285112;22;20050;-85
2022/02/14 15:52:04;;;;;;;2.10;1.70;;;8.50;99.90;;;;;;6283333;22;20030;-82
2022/02/14 15:55:02;;;;;;;3.40;2.00;;;8.30;99.90;;;;;;6285742;22;20065;-83
2022/02/14 15:57:52;;;;;;;6.68;2.85;;;8.20;99.90;;;;;;6282973;22;20042;-84
2022/02/14 16:00:47;;;;;;;6.78;3.10;;;8.10;99.90;;;;;;6284997;22;20027;-84
2022/02/14 16:04:22;;;;;;;3.33;1.90;;;8.00;99.90;;;;;;6287756;22;20020;-85
2022/02/14 16:07:10;;;;;;;3.25;1.40;;;8.00;99.90;;;;;;6283791;22;20027;-84
2022/02/14 16:10:11;;;;;;;3.35;1.45;;;7.90;99.90;;;;;;6282485;22;20026;-83
2022/02/14 16:13:13;;;;;;;1.73;1.23;;;7.80;99.90;;;;;;6304536;22;20031;-83
2022/02/14 16:16:05;;;;;;;2.08;1.58;;;7.80;99.90;;;;;;6302379;22;20366;-86
2022/02/14 16:18:56;;;;;;;3.50;2.37;;;7.70;99.90;;;;;;6284267;22;20019;-85
2022/02/14 16:21:46;;;;;;;5.20;2.88;;;7.70;99.90;;;;;;6282390;22;20023;-83
2022/02/14 16:24:34;;;;;;;8.13;4.00;;;7.70;99.90;;;;;;6283336;22;20038;-86
2022/02/14 16:27:21;;;;;;;5.85;3.28;;;7.70;99.90;;;;;;6281347;22;20077;-84
2022/02/14 16:30:14;;;;;;;4.00;2.55;;;7.70;99.90;;;;;;6284616;22;20031;-83